EAGO2: Mountain Fork Riv, Eagletown,

                                SHEF ID:       EAGO2     Mountain Fork near Eagletown, OK
STATION TYPE: Stream Gauge
Regulating: Stage = 9.00, Flow = 9433

PRECIP STAGE RIV-FLOW WTR-TEMP BAT-LOAD
in ft cfs F volt
Ccp-Rev Ccp-Rev Ccp-Rev Ccp-Rev Ccp-Rev
(America/Chicago)
05/01 00:00 0.00 3.34 1666 63.77 12.01
05/01 01:00 0.00 3.21 1537 63.79 12.01
05/01 02:00 0.00 3.04 1370 63.93 11.93
05/01 03:00 0.00 2.88 1224 63.93 11.93
05/01 04:00 0.00 2.71 1080 63.88 11.93
05/01 05:00 0.00 2.57 966 63.79 11.93
05/01 06:00 0.00 2.42 850 63.70 11.86
05/01 07:00 0.00 2.30 765 63.59 11.86
05/01 08:00 0.00 2.19 692 63.50 11.93
05/01 09:00 0.00 2.08 627 63.50 12.17
05/01 10:00 0.00 1.99 577 63.57 12.49
05/01 11:00 0.00 1.91 537 63.79 12.97
05/01 12:00 0.00 1.83 499 63.95 12.97
05/01 13:00 0.00 1.75 463 64.18 12.97
05/01 14:00 0.00 1.69 438 64.99 12.81
05/01 15:00 0.00 1.62 409 65.82 12.65
05/01 16:00 0.00 1.57 390 66.00 12.65
05/01 17:00 0.00 1.51 367 65.98 12.65
05/01 18:00 0.00 1.47 352 65.95 12.65
05/01 19:00 0.00 1.43 338 66.02 12.57
05/01 20:00 0.00 1.39 324 66.13 12.25
05/01 21:00 0.00 1.36 313 66.13 12.17
05/01 22:00 0.00 1.32 300 66.07 12.09
05/01 23:00 0.00 1.30 294 65.93 12.09
Data processed at Sat 02May2026 04:39 GMT

NOTICE: If you are parsing this page

Please convert to using our Data API. Starting early 2026 we will be migrating to: https://water.usace.army.mil with modern pages rendered in JavaScript. When this migration completes you will no longer be able to scrape this page! CWMSDataAPI (CDA)

Timeseries IDs (TSIDs)

TSIDs used from left to right in the data table
EAGL.Precip-Inc.Total.1Hour.1Hour.Ccp-Rev
EAGL.Stage.Inst.1Hour.0.Ccp-Rev
EAGL.Flow.Inst.1Hour.0.Ccp-Rev
EAGL.Temp-Water.Inst.1Hour.0.Ccp-Rev
EAGL.Volt-Battery Load.Inst.1Hour.0.Ccp-Rev

                            

All information presented herein is the property of the government of the United States of America and may be revised or deleted at any time without prior notice. Dissemination of this information without the expressed written consent of the Public Affairs Office, Tulsa District U.S. Army Corps of Engineers is strictly prohibited. These data are gathered electronically and, as presented, have NOT undergone any form of quality control. These data are NOT guaranteed to be valid or correct.